createdAt,value
2019-06-27T00:02:52.898Z,7.23
2019-06-27T00:07:58.269Z,4.93
2019-06-27T00:13:05.122Z,4.10
2019-06-27T00:18:10.720Z,5.23
2019-06-27T00:23:15.942Z,5.07
2019-06-27T00:28:21.526Z,4.20
2019-06-27T00:33:26.863Z,3.43
2019-06-27T00:38:31.832Z,4.90
2019-06-27T00:43:37.137Z,5.43
2019-06-27T00:48:43.978Z,4.03
2019-06-27T00:53:49.306Z,3.83
2019-06-27T00:58:54.375Z,6.63
2019-06-27T01:03:59.545Z,3.70
2019-06-27T01:09:06.068Z,6.37
2019-06-27T01:14:11.695Z,4.10
2019-06-27T01:19:16.750Z,8.10
2019-06-27T01:24:22.290Z,8.57
2019-06-27T01:29:27.354Z,4.60
2019-06-27T01:34:32.693Z,3.93
2019-06-27T01:39:37.663Z,2.17
2019-06-27T01:44:56.481Z,5.83
2019-06-27T01:50:01.863Z,6.00
2019-06-27T01:55:07.550Z,4.83
2019-06-27T02:00:13.511Z,4.03
2019-06-27T02:05:18.986Z,4.77
2019-06-27T02:10:24.945Z,4.23
2019-06-27T02:15:30.441Z,3.00
2019-06-27T02:20:35.544Z,3.00
2019-06-27T02:25:40.796Z,4.13
2019-06-27T02:30:46.306Z,3.90
2019-06-27T02:35:51.424Z,4.77
2019-06-27T02:40:58.831Z,5.37
2019-06-27T02:46:03.942Z,6.30
2019-06-27T02:51:09.174Z,5.17
2019-06-27T02:56:14.590Z,3.73
2019-06-27T03:01:19.572Z,7.23
2019-06-27T03:06:24.978Z,5.00
2019-06-27T03:11:30.385Z,3.87
2019-06-27T03:16:35.707Z,6.07
2019-06-27T03:21:41.435Z,6.47
2019-06-27T03:26:45.966Z,6.27
2019-06-27T03:31:51.334Z,8.47
2019-06-27T03:36:57.132Z,4.63
2019-06-27T03:42:02.544Z,7.10
2019-06-27T03:47:08.127Z,6.13
2019-06-27T03:52:14.032Z,7.77
2019-06-27T03:57:21.102Z,8.27
2019-06-27T04:02:26.585Z,6.60
2019-06-27T04:07:32.309Z,7.60
2019-06-27T04:12:37.516Z,7.17
2019-06-27T04:17:42.880Z,11.73
2019-06-27T04:22:48.517Z,7.90
2019-06-27T04:27:53.785Z,8.17
2019-06-27T04:32:59.434Z,9.17
2019-06-27T04:38:04.707Z,7.00
2019-06-27T04:43:10.050Z,8.30
2019-06-27T04:48:14.758Z,9.43
2019-06-27T04:53:20.340Z,8.50
2019-06-27T04:58:25.770Z,9.77
2019-06-27T05:03:31.527Z,13.97
2019-06-27T05:08:39.474Z,11.93
2019-06-27T05:13:44.517Z,13.20
2019-06-27T05:18:50.184Z,11.57
2019-06-27T05:23:55.576Z,14.77
2019-06-27T05:29:00.562Z,17.63
2019-06-27T05:34:06.342Z,17.30
2019-06-27T05:39:11.515Z,16.93
2019-06-27T05:44:16.720Z,18.93
2019-06-27T05:49:22.457Z,19.93
2019-06-27T05:54:27.711Z,21.27
2019-06-27T05:59:32.888Z,25.47
2019-06-27T06:04:38.239Z,25.50
2019-06-27T06:09:43.522Z,25.50
2019-06-27T06:14:48.788Z,18.67
2019-06-27T06:19:54.275Z,24.30
2019-06-27T06:24:59.663Z,22.73
2019-06-27T06:30:06.436Z,22.13
2019-06-27T06:35:12.041Z,23.00
2019-06-27T06:40:18.131Z,25.50
2019-06-27T06:45:23.240Z,19.80
2019-06-27T06:50:28.708Z,23.23
2019-06-27T06:55:34.611Z,21.43
2019-06-27T07:00:39.968Z,15.97
2019-06-27T07:05:45.398Z,20.40
2019-06-27T07:10:51.202Z,19.47
2019-06-27T07:15:56.784Z,18.03
2019-06-27T07:21:02.197Z,16.30
2019-06-27T07:26:10.601Z,20.23
2019-06-27T07:31:18.135Z,19.60
2019-06-27T07:36:22.604Z,16.03
2019-06-27T07:41:27.703Z,17.73
2019-06-27T07:46:33.191Z,14.27
2019-06-27T07:51:42.283Z,14.77
2019-06-27T07:56:50.220Z,15.73
2019-06-27T08:01:55.946Z,15.70
2019-06-27T08:07:04.549Z,15.80
2019-06-27T08:12:09.919Z,15.60
2019-06-27T08:17:15.715Z,13.17
2019-06-27T08:22:20.720Z,14.03
2019-06-27T08:27:26.478Z,15.50
2019-06-27T08:32:32.762Z,11.67
2019-06-27T08:37:38.084Z,12.83
2019-06-27T08:42:43.617Z,12.23
2019-06-27T08:47:48.932Z,9.87
2019-06-27T08:52:55.763Z,12.53
2019-06-27T08:58:01.271Z,11.83
2019-06-27T09:03:06.780Z,12.70
2019-06-27T09:08:12.287Z,11.23
2019-06-27T09:13:17.534Z,13.20
2019-06-27T09:18:22.722Z,10.23
2019-06-27T09:23:27.802Z,9.73
2019-06-27T09:28:32.842Z,10.67
2019-06-27T09:33:37.838Z,8.50
2019-06-27T09:38:43.509Z,8.50
2019-06-27T09:43:48.951Z,8.80
2019-06-27T09:48:53.969Z,7.27
2019-06-27T09:53:59.308Z,9.27
2019-06-27T09:59:04.590Z,6.73
2019-06-27T10:04:10.483Z,6.83
2019-06-27T10:09:16.141Z,9.53
2019-06-27T10:14:23.450Z,6.43
2019-06-27T10:19:29.590Z,8.60
2019-06-27T10:24:34.913Z,7.80
2019-06-27T10:29:40.391Z,5.67
2019-06-27T10:34:45.538Z,7.37
2019-06-27T10:39:51.011Z,7.30
2019-06-27T10:44:56.373Z,6.13
2019-06-27T10:50:02.171Z,7.97
2019-06-27T10:55:07.372Z,6.90
2019-06-27T11:00:13.025Z,6.90
2019-06-27T11:05:18.648Z,6.87
2019-06-27T11:10:23.767Z,9.47
2019-06-27T11:15:28.963Z,7.37
2019-06-27T11:20:34.185Z,7.07
2019-06-27T11:25:39.652Z,5.80
2019-06-27T11:30:45.254Z,6.50
2019-06-27T11:35:50.782Z,5.57
2019-06-27T11:40:56.050Z,5.57
2019-06-27T11:46:01.961Z,6.30
2019-06-27T11:51:07.407Z,4.37
2019-06-27T11:56:15.123Z,4.57
2019-06-27T12:01:20.615Z,6.17
2019-06-27T12:06:26.203Z,6.43
2019-06-27T12:11:31.668Z,7.30
2019-06-27T12:16:36.094Z,4.47
2019-06-27T12:21:41.133Z,5.20
2019-06-27T12:26:49.470Z,4.90
2019-06-27T12:31:57.908Z,2.67
2019-06-27T12:37:02.985Z,5.57
2019-06-27T12:42:08.721Z,4.57
2019-06-27T12:47:13.974Z,4.47
2019-06-27T12:52:20.584Z,4.23
2019-06-27T12:57:27.773Z,5.67
2019-06-27T13:02:32.912Z,4.27
2019-06-27T13:07:38.081Z,6.50
2019-06-27T13:12:43.290Z,3.97
2019-06-27T13:17:48.275Z,4.60
2019-06-27T13:22:53.532Z,3.23
2019-06-27T13:27:58.777Z,5.50
2019-06-27T13:33:04.345Z,4.67
2019-06-27T13:38:09.740Z,4.43
2019-06-27T13:43:15.559Z,4.23
2019-06-27T13:48:21.021Z,3.17
2019-06-27T13:53:26.289Z,3.53
2019-06-27T13:58:32.170Z,4.70
2019-06-27T14:03:48.879Z,4.80
2019-06-27T14:08:45.122Z,3.20
2019-06-27T14:13:49.596Z,3.90
2019-06-27T14:18:55.170Z,2.90
2019-06-27T14:24:00.602Z,2.57
2019-06-27T14:29:06.010Z,4.77
2019-06-27T14:34:11.619Z,3.47
2019-06-27T14:39:16.635Z,2.73
2019-06-27T14:44:21.874Z,2.37
2019-06-27T14:49:27.692Z,5.40
2019-06-27T14:54:33.149Z,3.43
2019-06-27T14:59:38.592Z,3.67
2019-06-27T15:04:44.359Z,4.20
2019-06-27T15:09:49.530Z,4.93
2019-06-27T15:14:55.065Z,4.43
2019-06-27T15:20:01.247Z,2.83
2019-06-27T15:25:06.720Z,4.10
2019-06-27T15:30:11.612Z,4.40
2019-06-27T15:35:16.962Z,2.57
2019-06-27T15:40:22.642Z,4.07
2019-06-27T15:45:28.106Z,4.37
2019-06-27T15:50:33.252Z,2.17
2019-06-27T15:55:38.810Z,4.47
2019-06-27T16:00:44.032Z,3.00
2019-06-27T16:05:49.434Z,3.97
2019-06-27T16:10:54.982Z,3.07
2019-06-27T16:16:00.760Z,2.37
2019-06-27T16:21:06.282Z,4.30
2019-06-27T16:26:11.579Z,4.87
2019-06-27T16:31:17.039Z,2.60
2019-06-27T16:36:25.892Z,2.93
2019-06-27T16:41:29.046Z,2.73
2019-06-27T16:46:34.294Z,2.17
2019-06-27T16:51:39.293Z,3.40
2019-06-27T16:56:44.428Z,3.50
2019-06-27T17:01:49.769Z,3.17
2019-06-27T17:06:58.192Z,4.70
2019-06-27T17:12:03.662Z,5.67
2019-06-27T17:17:08.704Z,3.43
2019-06-27T17:22:14.230Z,2.70
2019-06-27T17:27:20.516Z,1.90
2019-06-27T17:32:25.751Z,4.17
2019-06-27T17:37:30.940Z,2.57
2019-06-27T17:42:39.264Z,2.97
2019-06-27T17:47:44.748Z,1.73
2019-06-27T17:52:50.431Z,1.57
2019-06-27T17:57:55.665Z,2.03
2019-06-27T18:03:01.774Z,3.90
2019-06-27T18:08:07.154Z,3.60
2019-06-27T18:13:12.609Z,6.17
2019-06-27T18:18:17.968Z,2.50
2019-06-27T18:23:22.932Z,3.67
2019-06-27T18:28:28.358Z,2.97
2019-06-27T18:33:33.381Z,4.17
2019-06-27T18:38:38.747Z,4.40
2019-06-27T18:43:44.150Z,6.03
2019-06-27T18:48:51.902Z,2.83
2019-06-27T18:53:56.491Z,3.67
2019-06-27T18:59:03.369Z,3.77
2019-06-27T19:04:08.377Z,4.37
2019-06-27T19:09:14.307Z,3.13
2019-06-27T19:14:19.637Z,3.30
2019-06-27T19:19:27.862Z,3.47
2019-06-27T19:24:47.701Z,2.13
2019-06-27T19:29:53.251Z,2.80
2019-06-27T19:35:00.091Z,4.60
2019-06-27T19:40:06.280Z,3.70
2019-06-27T19:45:11.698Z,4.27
2019-06-27T19:50:17.261Z,3.95
2019-06-27T19:55:22.350Z,3.80
2019-06-27T20:00:27.369Z,2.73
2019-06-27T20:05:33.290Z,3.70
2019-06-27T20:10:38.667Z,2.80
2019-06-27T20:15:44.209Z,2.50
2019-06-27T20:20:52.732Z,3.07
2019-06-27T20:25:58.081Z,2.90
2019-06-27T20:31:03.634Z,3.03
2019-06-27T20:36:09.011Z,4.80
2019-06-27T20:41:14.574Z,3.77
2019-06-27T20:46:20.543Z,3.97
2019-06-27T20:51:25.651Z,4.87
2019-06-27T20:56:31.262Z,4.93
2019-06-27T21:01:36.497Z,5.93
2019-06-27T21:06:41.948Z,4.23
2019-06-27T21:11:47.435Z,5.33
2019-06-27T21:16:52.542Z,5.23
2019-06-27T21:21:58.899Z,2.60
2019-06-27T21:27:04.166Z,3.67
2019-06-27T21:32:09.184Z,4.00
2019-06-27T21:37:14.809Z,4.17
2019-06-27T21:42:20.093Z,4.73
2019-06-27T21:47:25.565Z,2.90
2019-06-27T21:52:30.690Z,3.40
2019-06-27T21:57:38.385Z,3.93
2019-06-27T22:02:43.866Z,4.53
2019-06-27T22:07:48.928Z,2.60
2019-06-27T22:12:55.070Z,1.93
2019-06-27T22:18:00.265Z,3.13
2019-06-27T22:23:05.419Z,2.40
2019-06-27T22:28:10.468Z,3.17
2019-06-27T22:33:15.406Z,2.40
2019-06-27T22:38:38.064Z,2.00
2019-06-27T22:44:01.681Z,2.67
2019-06-27T22:49:06.081Z,1.90
2019-06-27T22:54:12.118Z,2.70
2019-06-27T22:59:17.053Z,2.07
2019-06-27T23:04:22.081Z,2.43
2019-06-27T23:09:27.193Z,2.30
2019-06-27T23:14:32.733Z,2.80
2019-06-27T23:19:37.934Z,4.93
2019-06-27T23:24:43.160Z,2.03
2019-06-27T23:29:48.526Z,1.10
2019-06-27T23:34:53.466Z,2.47
2019-06-27T23:40:12.723Z,3.13
2019-06-27T23:45:06.893Z,4.73
2019-06-27T23:50:12.407Z,4.07
2019-06-27T23:55:17.421Z,1.70
